Terminal Aerodrome Forecast
Issued by NWS

Home | Current Version | Previous Version | Graphics & Text | Print | Product List | Glossary On
Versions: 1 2 3 4 5 6 7 8 9 10 11 12 13 14 15 16 17 18 19 20 21 22 23 24 25 26
000
FTUS43 KMPX 140520
TAFRWF
TAF
KRWF 140520Z 1406/1506 16007KT P6SM SCT025 BKN040
     FM140800 17005KT P6SM OVC012
     FM141000 22005KT 1/2SM FG OVC003
     FM141400 31003KT 2SM BR BKN003 BKN009
     FM141600 33003KT 4SM BR BKN009
     FM141800 35005KT P6SM OVC015
     FM142100 36005KT P6SM SCT020 BKN040=

USA.gov is the U.S. government's official web portal to all federal, state and local government web resources and services.